Time;durP1;ratioP1;P1;durP2;ratioP2;P2;SDS_P1;SDS_P2;PMS_P1;PMS_P2;Temp;Humidity;BMP_temperature;BMP_pressure;BME280_temperature;BME280_humidity;BME280_pressure;Samples;Min_cycle;Max_cycle;Signal;HPM_P1;HPM_P2
2023/10/07 00:02:55;;;;;;;12.55;5.38;;;11.40;99.90;;;;;;4972088;28;20125;-68
2023/10/07 00:05:27;;;;;;;17.83;3.90;;;11.40;99.90;;;;;;4957698;28;20023;-68
2023/10/07 00:08:00;;;;;;;24.08;4.70;;;11.40;99.90;;;;;;4970212;28;20046;-68
2023/10/07 00:10:27;;;;;;;11.43;4.38;;;11.40;99.90;;;;;;4971046;28;20019;-68
2023/10/07 00:12:56;;;;;;;14.52;4.20;;;11.40;99.90;;;;;;4971389;28;20081;-68
2023/10/07 00:15:24;;;;;;;12.82;5.22;;;11.40;99.90;;;;;;4972935;28;20034;-68
2023/10/07 00:17:50;;;;;;;12.70;4.90;;;11.40;99.90;;;;;;4971141;28;20022;-68
2023/10/07 00:20:20;;;;;;;9.90;3.88;;;11.40;99.90;;;;;;4973795;28;20077;-68
2023/10/07 00:22:52;;;;;;;9.40;3.70;;;11.40;99.90;;;;;;4972292;28;20057;-68
2023/10/07 00:25:19;;;;;;;13.82;4.53;;;11.50;99.90;;;;;;4974579;28;20382;-68
2023/10/07 00:27:49;;;;;;;10.32;3.78;;;11.50;99.90;;;;;;4971406;28;20023;-68
2023/10/07 00:30:16;;;;;;;13.15;4.38;;;11.40;99.90;;;;;;4957706;28;20045;-68
2023/10/07 00:32:50;;;;;;;17.27;5.03;;;11.40;99.90;;;;;;4971053;28;20129;-68
2023/10/07 00:35:20;;;;;;;10.25;3.75;;;11.40;99.90;;;;;;4974657;28;20064;-68
2023/10/07 00:37:45;;;;;;;11.13;3.42;;;11.40;99.90;;;;;;4971098;28;20056;-68
2023/10/07 00:40:24;;;;;;;12.98;5.22;;;11.30;99.90;;;;;;4975142;28;20546;-68
2023/10/07 00:42:51;;;;;;;13.55;5.10;;;11.30;99.90;;;;;;4971699;28;20090;-68
2023/10/07 00:45:17;;;;;;;14.80;4.05;;;11.30;99.90;;;;;;4976298;28;20033;-68
2023/10/07 00:47:46;;;;;;;12.82;4.00;;;11.30;99.90;;;;;;4975252;28;20035;-68
2023/10/07 00:50:12;;;;;;;13.23;5.05;;;11.30;99.90;;;;;;4957437;28;20030;-68
2023/10/07 00:52:55;;;;;;;13.93;5.45;;;11.30;99.90;;;;;;4970947;28;20038;-68
2023/10/07 00:55:28;;;;;;;9.68;4.40;;;11.30;99.90;;;;;;4971778;28;20085;-68
2023/10/07 01:00:46;;;;;;;8.35;3.55;;;11.20;99.90;;;;;;4971810;28;20437;-68
2023/10/07 01:03:23;;;;;;;11.20;4.18;;;11.20;99.90;;;;;;4970612;28;20066;-68
2023/10/07 01:13:56;;;;;;;14.20;3.85;;;11.10;99.90;;;;;;4972954;28;20034;-68
2023/10/07 01:16:42;;;;;;;10.43;3.90;;;11.00;99.90;;;;;;4968357;28;21042;-68
2023/10/07 01:22:11;;;;;;;10.77;4.50;;;11.00;99.90;;;;;;4969722;28;20502;-68
2023/10/07 01:29:45;;;;;;;8.02;3.85;;;11.00;99.90;;;;;;4972433;28;20019;-68
2023/10/07 01:32:16;;;;;;;9.82;3.78;;;11.00;99.90;;;;;;4969503;28;20482;-68
2023/10/07 01:34:51;;;;;;;13.18;4.68;;;11.00;99.90;;;;;;4972787;28;20113;-68
2023/10/07 01:37:21;;;;;;;11.27;4.65;;;11.00;99.90;;;;;;4967845;28;20037;-68
2023/10/07 01:39:52;;;;;;;10.63;4.10;;;10.90;99.90;;;;;;4971636;28;20065;-68
2023/10/07 01:42:35;;;;;;;10.20;4.80;;;10.90;99.90;;;;;;4985200;28;20130;-68
2023/10/07 01:45:11;;;;;;;9.65;3.75;;;10.90;99.90;;;;;;4970918;28;20027;-68
2023/10/07 01:47:38;;;;;;;13.45;4.85;;;10.80;99.90;;;;;;4971084;28;20033;-68
2023/10/07 01:50:11;;;;;;;10.75;3.90;;;10.70;99.90;;;;;;4973307;28;20023;-68
2023/10/07 01:52:38;;;;;;;12.23;4.22;;;10.60;99.90;;;;;;4986271;28;20582;-68
2023/10/07 01:55:09;;;;;;;15.00;4.70;;;10.60;99.90;;;;;;4972863;28;20027;-68
2023/10/07 01:57:35;;;;;;;16.20;4.32;;;10.60;99.90;;;;;;4970593;28;20027;-68
2023/10/07 02:00:06;;;;;;;14.00;3.95;;;10.70;99.90;;;;;;4973144;28;20035;-68
2023/10/07 02:02:32;;;;;;;7.63;3.45;;;10.70;99.90;;;;;;4969786;28;20059;-68
2023/10/07 02:04:59;;;;;;;7.57;3.40;;;10.70;99.90;;;;;;4972498;28;20034;-68
2023/10/07 02:07:25;;;;;;;14.68;4.25;;;10.70;99.90;;;;;;4972185;28;20094;-68
2023/10/07 02:09:54;;;;;;;12.07;4.07;;;10.70;99.90;;;;;;4971426;28;20022;-68
2023/10/07 02:12:20;;;;;;;19.48;5.30;;;10.70;99.90;;;;;;4985047;28;20039;-68
2023/10/07 02:14:46;;;;;;;8.82;4.15;;;10.70;99.90;;;;;;4970849;28;20031;-68
2023/10/07 02:17:12;;;;;;;12.82;3.53;;;10.70;99.90;;;;;;4969555;28;20085;-68
2023/10/07 02:19:41;;;;;;;8.25;3.53;;;10.70;99.90;;;;;;4972383;28;20026;-68
2023/10/07 02:22:07;;;;;;;11.50;4.90;;;10.70;99.90;;;;;;4970188;28;20053;-68
2023/10/07 02:24:35;;;;;;;4.38;2.58;;;10.70;99.90;;;;;;4954905;28;20034;-68
2023/10/07 02:27:16;;;;;;;9.73;3.38;;;10.70;99.90;;;;;;4968710;28;20085;-68
2023/10/07 02:29:43;;;;;;;8.98;3.50;;;10.70;99.90;;;;;;4970605;28;20023;-68
2023/10/07 02:32:19;;;;;;;13.57;4.07;;;10.70;99.90;;;;;;4966185;28;20035;-68
2023/10/07 02:34:51;;;;;;;13.68;4.75;;;10.70;99.90;;;;;;4970955;28;20089;-68
2023/10/07 02:37:25;;;;;;;9.63;4.40;;;10.60;99.90;;;;;;4972036;28;20039;-69
2023/10/07 02:39:56;;;;;;;16.75;6.72;;;10.50;99.90;;;;;;4972866;28;20026;-68
2023/10/07 02:42:28;;;;;;;10.35;4.13;;;10.60;99.90;;;;;;4968824;28;20058;-68
2023/10/07 02:48:00;;;;;;;7.80;2.97;;;10.30;99.90;;;;;;4970315;28;20047;-68
2023/10/07 02:50:31;;;;;;;11.52;4.18;;;10.30;99.90;;;;;;4972067;28;20019;-68
2023/10/07 02:53:00;;;;;;;17.08;4.10;;;10.30;99.90;;;;;;4970716;28;20050;-68
2023/10/07 02:57:58;;;;;;;9.98;3.70;;;10.30;99.90;;;;;;4970526;28;20426;-69
2023/10/07 03:00:49;;;;;;;9.85;3.97;;;10.20;99.90;;;;;;4971340;28;20113;-68
2023/10/07 03:05:59;;;;;;;10.68;3.80;;;10.20;99.90;;;;;;4969345;28;20262;-68
2023/10/07 03:08:40;;;;;;;9.18;3.78;;;10.10;99.90;;;;;;4971048;28;20459;-68
2023/10/07 03:11:12;;;;;;;14.03;3.47;;;10.10;99.90;;;;;;4994011;28;20175;-68
2023/10/07 03:13:45;;;;;;;7.93;3.75;;;10.10;99.90;;;;;;4969156;28;20030;-68
2023/10/07 03:19:05;;;;;;;13.95;4.57;;;10.00;99.90;;;;;;4971362;28;20031;-68
2023/10/07 03:24:11;;;;;;;7.97;3.85;;;10.10;99.90;;;;;;4975753;28;20097;-66
2023/10/07 03:26:40;;;;;;;19.67;5.07;;;10.00;99.90;;;;;;4971686;28;20023;-68
2023/10/07 03:29:06;;;;;;;10.68;3.70;;;10.00;99.90;;;;;;4976750;28;20166;-68
2023/10/07 03:34:11;;;;;;;9.63;3.83;;;9.90;99.90;;;;;;4974287;28;20037;-68
2023/10/07 03:36:41;;;;;;;11.85;3.28;;;9.90;99.90;;;;;;4973242;28;20081;-68
2023/10/07 03:41:55;;;;;;;10.77;3.50;;;9.80;99.90;;;;;;4972427;28;20042;-68
2023/10/07 03:44:25;;;;;;;12.83;5.23;;;9.80;99.90;;;;;;4972307;28;20033;-68
2023/10/07 03:46:54;;;;;;;15.95;5.55;;;9.80;99.90;;;;;;4973188;28;20038;-68
2023/10/07 03:49:22;;;;;;;15.23;4.28;;;9.80;99.90;;;;;;4976644;28;20027;-68
2023/10/07 03:51:58;;;;;;;16.67;5.25;;;9.70;99.90;;;;;;4976207;28;20580;-68
2023/10/07 03:54:29;;;;;;;11.13;4.57;;;9.80;99.90;;;;;;4976591;28;20035;-68
2023/10/07 03:56:56;;;;;;;12.98;5.20;;;9.70;99.90;;;;;;4976202;28;20030;-68
2023/10/07 03:59:23;;;;;;;10.48;3.88;;;9.60;99.90;;;;;;4975057;28;20038;-68
2023/10/07 04:01:53;;;;;;;14.20;4.30;;;9.60;99.90;;;;;;4973893;28;20455;-68
2023/10/07 04:04:22;;;;;;;13.27;5.57;;;9.50;99.90;;;;;;4974515;28;20023;-68
2023/10/07 04:06:48;;;;;;;17.65;4.65;;;9.60;99.90;;;;;;4972199;28;20019;-68
2023/10/07 04:09:14;;;;;;;19.25;4.68;;;9.50;99.90;;;;;;4970694;28;20031;-69
2023/10/07 04:11:48;;;;;;;13.55;4.50;;;9.50;99.90;;;;;;4973681;28;20090;-68
2023/10/07 04:14:35;;;;;;;9.45;4.20;;;9.50;99.90;;;;;;4976660;28;20073;-68
2023/10/07 04:17:11;;;;;;;13.30;3.65;;;9.50;99.90;;;;;;4961558;28;20022;-68
2023/10/07 04:19:52;;;;;;;12.10;4.63;;;9.50;99.90;;;;;;4972808;28;20418;-68
2023/10/07 04:22:18;;;;;;;13.40;4.10;;;9.50;99.90;;;;;;4971497;28;20031;-68
2023/10/07 04:24:44;;;;;;;10.40;3.67;;;9.50;99.90;;;;;;4973671;28;20109;-68
2023/10/07 04:27:18;;;;;;;14.43;3.95;;;9.50;99.90;;;;;;4973547;28;20034;-68
2023/10/07 04:29:51;;;;;;;11.32;3.35;;;9.40;99.90;;;;;;4973346;28;20031;-68
2023/10/07 04:32:23;;;;;;;12.45;4.63;;;9.40;99.90;;;;;;4969549;28;20069;-68
2023/10/07 04:37:59;;;;;;;12.90;3.97;;;9.40;99.90;;;;;;4973026;28;20047;-68
2023/10/07 04:43:25;;;;;;;12.93;4.28;;;9.30;99.90;;;;;;4972514;28;20038;-68
2023/10/07 04:45:49;;;;;;;17.50;4.28;;;9.30;99.90;;;;;;4972552;28;20030;-68
2023/10/07 04:48:31;;;;;;;12.88;5.65;;;9.20;99.90;;;;;;4972337;28;20157;-68
2023/10/07 04:51:03;;;;;;;8.35;3.78;;;9.20;99.90;;;;;;4973603;28;20059;-68
2023/10/07 04:53:39;;;;;;;14.35;4.25;;;9.20;99.90;;;;;;4973548;28;20398;-68
2023/10/07 04:56:10;;;;;;;6.97;4.00;;;9.10;99.90;;;;;;4971210;28;20054;-68
2023/10/07 04:58:40;;;;;;;12.73;5.20;;;9.10;99.90;;;;;;4973385;28;20038;-68
2023/10/07 05:03:55;;;;;;;16.92;4.68;;;9.00;99.90;;;;;;4973259;28;20387;-68
2023/10/07 05:06:25;;;;;;;14.75;4.82;;;8.90;99.90;;;;;;4972979;28;20039;-68
2023/10/07 05:08:51;;;;;;;12.68;4.57;;;8.90;99.90;;;;;;4973171;28;20414;-68
2023/10/07 05:11:20;;;;;;;10.40;4.63;;;8.90;99.90;;;;;;4971543;28;20396;-68
2023/10/07 05:13:46;;;;;;;14.00;3.53;;;8.90;99.90;;;;;;4972775;28;20031;-68
2023/10/07 05:16:15;;;;;;;13.50;5.18;;;9.00;99.90;;;;;;4974261;28;20045;-68
2023/10/07 05:18:42;;;;;;;15.18;4.82;;;9.00;99.90;;;;;;4971015;28;20030;-68
2023/10/07 05:21:08;;;;;;;19.33;5.45;;;8.90;99.90;;;;;;4971287;28;20146;-68
2023/10/07 05:23:36;;;;;;;17.10;4.15;;;9.00;99.90;;;;;;4972162;28;20035;-68
2023/10/07 05:26:03;;;;;;;14.05;4.82;;;9.00;99.90;;;;;;4972070;28;20027;-68
2023/10/07 05:28:32;;;;;;;10.57;4.75;;;9.00;99.90;;;;;;4971861;28;20038;-68
2023/10/07 05:31:00;;;;;;;12.07;4.45;;;9.00;99.90;;;;;;4971551;28;20082;-68
2023/10/07 05:33:35;;;;;;;11.88;4.57;;;9.10;99.90;;;;;;4969781;28;20070;-68
2023/10/07 05:36:11;;;;;;;17.38;5.38;;;9.10;99.90;;;;;;4970038;28;20129;-68
2023/10/07 05:38:38;;;;;;;13.07;4.10;;;9.20;99.90;;;;;;4972341;28;20041;-68
2023/10/07 05:41:12;;;;;;;9.68;4.55;;;9.20;99.90;;;;;;4972060;28;20019;-68
2023/10/07 05:43:44;;;;;;;13.07;4.25;;;9.30;99.90;;;;;;4985996;28;20114;-68
2023/10/07 05:46:13;;;;;;;15.93;5.05;;;9.30;99.90;;;;;;4970302;28;20038;-68
2023/10/07 05:48:40;;;;;;;15.07;4.47;;;9.30;99.90;;;;;;4973880;28;20031;-68
2023/10/07 05:51:09;;;;;;;14.77;3.50;;;9.40;99.90;;;;;;4972923;28;20034;-68
2023/10/07 05:53:48;;;;;;;9.05;3.85;;;9.40;99.90;;;;;;4971680;28;20170;-68
2023/10/07 05:56:15;;;;;;;13.23;5.03;;;9.40;99.90;;;;;;4970231;28;20066;-68
2023/10/07 05:58:43;;;;;;;11.90;3.85;;;9.40;99.90;;;;;;4970370;28;20034;-69
2023/10/07 06:01:11;;;;;;;15.18;3.60;;;9.40;99.90;;;;;;4971484;28;20031;-69
2023/10/07 06:03:38;;;;;;;11.75;4.25;;;9.50;99.90;;;;;;4968981;28;20455;-69
2023/10/07 06:06:04;;;;;;;12.20;4.25;;;9.50;99.90;;;;;;4970460;28;20038;-69
2023/10/07 06:08:34;;;;;;;11.60;5.63;;;9.60;99.90;;;;;;4970885;28;20560;-69
2023/10/07 06:11:03;;;;;;;14.43;4.95;;;9.60;99.90;;;;;;4971044;28;20034;-69
2023/10/07 06:13:29;;;;;;;11.85;5.47;;;9.60;99.90;;;;;;4971954;28;20030;-68
2023/10/07 06:15:58;;;;;;;8.65;3.83;;;9.70;99.90;;;;;;4971054;28;20025;-68
2023/10/07 06:18:25;;;;;;;8.82;2.67;;;9.70;99.90;;;;;;4969577;28;20034;-68
2023/10/07 06:20:52;;;;;;;12.05;3.92;;;9.70;99.90;;;;;;4972403;28;20037;-68
2023/10/07 06:23:24;;;;;;;15.80;4.68;;;9.70;99.90;;;;;;4940448;28;20477;-69
2023/10/07 06:25:52;;;;;;;9.50;3.95;;;9.80;99.90;;;;;;4988855;28;20113;-69
2023/10/07 06:30:56;;;;;;;13.63;4.13;;;9.90;99.90;;;;;;4963628;28;20113;-69
2023/10/07 06:33:23;;;;;;;10.38;3.13;;;9.90;99.90;;;;;;4970997;28;20038;-69
2023/10/07 06:35:51;;;;;;;9.88;4.38;;;10.00;99.90;;;;;;4970048;28;20038;-69
2023/10/07 06:38:20;;;;;;;10.32;3.40;;;10.00;99.90;;;;;;4961274;28;20371;-69
2023/10/07 06:40:48;;;;;;;9.60;4.00;;;10.00;99.90;;;;;;4972111;28;20117;-69
2023/10/07 06:43:15;;;;;;;11.20;3.72;;;10.00;99.90;;;;;;4983615;28;20533;-68
2023/10/07 06:45:44;;;;;;;7.30;3.22;;;10.10;99.90;;;;;;4986428;28;20030;-70
2023/10/07 06:48:11;;;;;;;18.00;4.47;;;10.20;99.90;;;;;;4967636;28;20142;-68
2023/10/07 06:50:43;;;;;;;12.25;3.55;;;10.20;99.90;;;;;;4986612;28;20031;-69
2023/10/07 06:53:11;;;;;;;13.60;4.70;;;10.20;99.90;;;;;;4967712;28;20035;-69
2023/10/07 06:55:43;;;;;;;14.18;3.45;;;10.30;99.90;;;;;;4971344;28;20030;-69
2023/10/07 06:58:09;;;;;;;15.02;4.32;;;10.30;99.90;;;;;;4965882;28;20035;-70
2023/10/07 07:00:47;;;;;;;9.52;4.25;;;10.40;99.90;;;;;;4969545;28;20031;-64
2023/10/07 07:03:17;;;;;;;11.27;5.13;;;10.50;99.90;;;;;;4971020;28;20066;-65
2023/10/07 07:05:48;;;;;;;10.20;3.00;;;10.60;99.90;;;;;;4975307;28;20035;-63
2023/10/07 07:08:14;;;;;;;11.40;3.55;;;10.70;99.90;;;;;;4972656;28;20298;-66
2023/10/07 07:10:41;;;;;;;13.57;4.18;;;10.80;99.90;;;;;;4974056;28;20030;-65
2023/10/07 07:13:15;;;;;;;11.02;5.00;;;10.80;99.90;;;;;;4970835;28;20035;-66
2023/10/07 07:15:47;;;;;;;11.65;3.78;;;11.00;99.90;;;;;;4973026;28;20034;-66
2023/10/07 07:20:49;;;;;;;10.75;3.33;;;11.00;99.90;;;;;;4978312;28;20487;-66
2023/10/07 07:23:16;;;;;;;12.85;3.50;;;11.20;99.90;;;;;;4992853;28;20117;-66
2023/10/07 07:25:50;;;;;;;9.15;3.72;;;11.20;99.90;;;;;;4992001;28;20038;-66
2023/10/07 07:28:17;;;;;;;8.32;3.33;;;11.30;99.90;;;;;;4971465;28;20038;-66
2023/10/07 07:30:45;;;;;;;8.82;3.80;;;11.40;99.90;;;;;;4975361;28;20029;-66
2023/10/07 07:33:15;;;;;;;10.43;4.78;;;11.40;99.90;;;;;;4972331;28;20438;-67
2023/10/07 07:35:43;;;;;;;8.80;2.97;;;11.50;99.90;;;;;;4973418;28;20130;-66
2023/10/07 07:41:26;;;;;;;15.27;3.58;;;11.60;99.90;;;;;;4960643;28;20031;-66
2023/10/07 07:43:59;;;;;;;15.27;4.53;;;11.70;99.90;;;;;;4961848;28;20066;-66
2023/10/07 07:46:29;;;;;;;12.73;5.05;;;11.70;99.90;;;;;;4968769;28;20062;-66
2023/10/07 07:49:08;;;;;;;15.02;3.75;;;11.90;99.90;;;;;;4966163;28;20030;-66
2023/10/07 07:51:43;;;;;;;8.15;3.58;;;12.00;99.90;;;;;;4967078;28;20027;-66
2023/10/07 07:54:10;;;;;;;9.63;2.80;;;12.00;99.90;;;;;;4974869;28;20486;-66
2023/10/07 07:56:37;;;;;;;9.05;3.42;;;12.00;99.90;;;;;;4984535;28;20035;-66
2023/10/07 07:59:13;;;;;;;7.63;3.20;;;12.10;99.90;;;;;;4989795;28;20101;-66
2023/10/07 08:01:51;;;;;;;8.10;3.83;;;12.20;99.90;;;;;;4968472;28;20031;-66
2023/10/07 08:04:17;;;;;;;10.35;3.17;;;12.20;99.90;;;;;;4975026;28;20049;-66
2023/10/07 08:06:49;;;;;;;9.32;3.15;;;12.30;99.90;;;;;;4968998;28;20043;-66
2023/10/07 08:09:19;;;;;;;7.22;2.92;;;12.20;99.90;;;;;;4973433;28;20029;-66
2023/10/07 08:11:47;;;;;;;7.20;2.75;;;12.40;99.90;;;;;;4971345;28;20041;-66
2023/10/07 08:14:14;;;;;;;8.82;3.30;;;12.30;99.90;;;;;;4973612;28;20102;-66
2023/10/07 08:16:51;;;;;;;9.32;3.60;;;12.30;99.90;;;;;;4969191;28;20031;-66
2023/10/07 08:19:20;;;;;;;8.10;3.10;;;12.40;99.90;;;;;;4974756;28;20031;-67
2023/10/07 08:21:51;;;;;;;7.10;2.80;;;12.40;99.90;;;;;;4973785;28;20035;-66
2023/10/07 08:24:20;;;;;;;17.38;2.95;;;12.50;99.90;;;;;;4973163;28;20026;-67
2023/10/07 08:26:49;;;;;;;6.50;2.58;;;12.60;99.90;;;;;;4967841;28;20045;-66
2023/10/07 08:29:34;;;;;;;9.70;3.75;;;12.60;99.90;;;;;;4973212;28;20037;-66
2023/10/07 08:32:34;;;;;;;8.45;3.13;;;12.80;99.90;;;;;;4964409;28;20026;-66
2023/10/07 08:35:00;;;;;;;8.15;2.90;;;12.90;99.90;;;;;;4972228;28;20694;-66
2023/10/07 08:37:32;;;;;;;14.95;3.55;;;12.90;99.90;;;;;;4970595;28;20030;-65
2023/10/07 08:40:14;;;;;;;11.98;3.35;;;13.10;99.90;;;;;;4971991;28;20031;-65
2023/10/07 08:42:47;;;;;;;6.53;2.70;;;13.10;99.90;;;;;;4972291;28;20038;-64
2023/10/07 08:45:23;;;;;;;8.73;3.00;;;13.20;99.90;;;;;;4967223;28;20066;-66
2023/10/07 08:47:51;;;;;;;10.10;3.60;;;13.30;99.90;;;;;;4973121;28;20130;-65
2023/10/07 08:50:23;;;;;;;6.82;3.13;;;13.40;99.90;;;;;;4969012;28;20070;-66
2023/10/07 08:53:05;;;;;;;10.13;4.18;;;13.50;99.90;;;;;;4987634;28;20038;-65
2023/10/07 08:55:33;;;;;;;14.15;3.92;;;13.70;99.90;;;;;;4966776;28;20031;-66
2023/10/07 08:58:02;;;;;;;16.40;3.63;;;13.80;99.90;;;;;;4973799;28;20041;-66
2023/10/07 09:00:38;;;;;;;8.85;3.42;;;14.00;99.90;;;;;;4972994;28;20049;-65
2023/10/07 09:03:14;;;;;;;9.15;3.13;;;14.10;99.90;;;;;;4973525;28;20051;-65
2023/10/07 09:05:42;;;;;;;6.55;2.92;;;14.30;99.90;;;;;;4982868;28;20043;-65
2023/10/07 09:08:11;;;;;;;7.93;3.10;;;14.50;99.90;;;;;;4972333;28;20458;-65
2023/10/07 09:10:39;;;;;;;9.32;3.10;;;14.80;99.90;;;;;;4971005;28;20058;-65
2023/10/07 09:13:12;;;;;;;8.13;2.67;;;15.00;99.90;;;;;;4972308;28;20050;-65
2023/10/07 09:15:42;;;;;;;9.98;3.53;;;15.30;99.90;;;;;;4968227;28;20031;-66
2023/10/07 09:18:10;;;;;;;7.80;2.83;;;15.60;99.90;;;;;;4987808;28;20046;-65
2023/10/07 09:20:45;;;;;;;7.28;2.53;;;15.80;99.90;;;;;;4969484;28;20083;-65
2023/10/07 09:23:20;;;;;;;6.30;2.42;;;15.90;99.90;;;;;;4974253;28;20062;-65
2023/10/07 09:25:50;;;;;;;4.85;2.42;;;16.00;99.90;;;;;;4973552;28;20027;-70
2023/10/07 09:28:18;;;;;;;6.85;2.25;;;15.90;99.90;;;;;;4972522;28;20030;-66
2023/10/07 09:30:45;;;;;;;6.15;2.47;;;16.30;99.90;;;;;;4968357;28;20039;-66
2023/10/07 09:33:21;;;;;;;9.73;2.15;;;16.40;99.90;;;;;;4973146;28;20027;-66
2023/10/07 09:38:41;;;;;;;4.47;1.90;;;16.60;99.90;;;;;;4971894;28;20038;-65
2023/10/07 09:43:48;;;;;;;5.32;1.92;;;16.80;99.90;;;;;;4971758;28;22100;-65
2023/10/07 09:46:19;;;;;;;6.55;2.35;;;16.90;99.90;;;;;;4982609;28;20043;-65
2023/10/07 09:48:46;;;;;;;7.30;2.00;;;17.00;99.90;;;;;;4971336;28;20042;-66
2023/10/07 09:51:17;;;;;;;5.50;2.10;;;17.40;99.90;;;;;;4986988;28;20471;-65
2023/10/07 09:53:55;;;;;;;4.80;1.40;;;17.50;99.90;;;;;;4964046;28;20050;-65
2023/10/07 09:57:20;;;;;;;4.65;1.67;;;17.40;99.90;;;;;;4971694;28;20054;-65
2023/10/07 10:03:06;;;;;;;9.27;2.28;;;17.60;99.90;;;;;;4976601;28;20638;-64
2023/10/07 10:05:47;;;;;;;5.95;2.40;;;17.90;99.90;;;;;;4965415;28;20393;-63
2023/10/07 10:08:43;;;;;;;3.15;1.30;;;17.80;99.90;;;;;;4972440;28;20054;-63
2023/10/07 10:11:30;;;;;;;8.98;2.25;;;17.90;99.90;;;;;;4969291;28;20027;-64
2023/10/07 10:16:44;;;;;;;4.07;1.80;;;18.00;99.90;;;;;;4965460;28;20035;-63
2023/10/07 10:19:22;;;;;;;7.78;1.98;;;18.00;99.90;;;;;;4972357;28;20030;-63
2023/10/07 10:21:52;;;;;;;4.78;2.15;;;18.10;99.90;;;;;;4965336;28;20042;-63
2023/10/07 10:24:30;;;;;;;4.88;2.08;;;18.20;99.90;;;;;;4971260;28;20042;-63
2023/10/07 10:27:08;;;;;;;4.50;1.48;;;17.80;99.90;;;;;;4965775;28;20038;-67
2023/10/07 10:29:52;;;;;;;3.95;1.45;;;18.00;99.90;;;;;;4970777;28;20510;-67
2023/10/07 10:32:28;;;;;;;5.18;1.88;;;17.90;99.90;;;;;;4967710;28;20031;-66
2023/10/07 10:34:59;;;;;;;5.78;1.73;;;17.80;99.90;;;;;;4968084;28;20049;-66
2023/10/07 10:37:26;;;;;;;;;;;17.70;99.90;;;;;;4968090;28;20062;-66
2023/10/07 10:39:55;;;;;;;2.75;1.05;;;17.70;99.90;;;;;;4973648;28;19972;-66
2023/10/07 10:42:21;;;;;;;8.95;2.30;;;17.90;99.90;;;;;;4971661;28;20454;-66
2023/10/07 10:44:48;;;;;;;4.13;1.20;;;17.80;99.90;;;;;;4971405;28;20545;-63
2023/10/07 10:47:18;;;;;;;3.58;1.77;;;18.00;99.90;;;;;;4981515;28;20034;-66
2023/10/07 10:49:45;;;;;;;7.50;2.10;;;18.20;99.90;;;;;;4971136;28;20554;-65
2023/10/07 10:52:12;;;;;;;5.68;1.95;;;18.20;99.90;;;;;;4971499;28;20042;-69
2023/10/07 10:54:41;;;;;;;10.32;2.38;;;18.50;99.90;;;;;;4971366;28;20046;-71
2023/10/07 10:57:14;;;;;;;9.63;2.53;;;18.60;99.90;;;;;;4966139;28;20109;-66
2023/10/07 10:59:47;;;;;;;4.65;2.05;;;18.50;99.90;;;;;;4971279;28;20035;-66
2023/10/07 11:02:20;;;;;;;4.72;1.67;;;18.60;99.90;;;;;;4957494;28;20050;-66
2023/10/07 11:04:54;;;;;;;4.60;1.73;;;18.40;99.90;;;;;;4955529;28;20109;-66
2023/10/07 11:07:23;;;;;;;6.10;1.83;;;18.50;99.90;;;;;;4954126;28;20090;-66
2023/10/07 11:09:53;;;;;;;12.15;1.98;;;18.60;99.90;;;;;;4967977;28;20141;-66
2023/10/07 11:12:22;;;;;;;4.05;1.60;;;18.50;99.90;;;;;;4969173;28;20031;-67
2023/10/07 11:14:48;;;;;;;3.75;1.92;;;18.60;99.90;;;;;;4970258;28;20680;-67
2023/10/07 11:17:15;;;;;;;5.47;2.03;;;18.70;99.90;;;;;;4971353;28;20027;-67
2023/10/07 11:19:48;;;;;;;8.93;1.88;;;18.90;99.90;;;;;;4968570;28;20435;-64
2023/10/07 11:22:19;;;;;;;4.82;1.60;;;18.90;99.90;;;;;;4970026;28;20030;-58
2023/10/07 11:24:49;;;;;;;4.03;1.73;;;18.80;99.90;;;;;;4970160;28;20023;-66
2023/10/07 11:27:23;;;;;;;6.43;3.03;;;19.00;99.90;;;;;;4985384;28;20331;-65
2023/10/07 11:30:03;;;;;;;12.07;2.00;;;19.30;99.90;;;;;;4969728;28;20058;-65
2023/10/07 11:32:38;;;;;;;4.53;1.92;;;19.10;99.90;;;;;;4969612;28;20042;-65
2023/10/07 11:35:27;;;;;;;7.88;2.33;;;19.00;99.90;;;;;;4964794;28;20026;-65
2023/10/07 11:37:57;;;;;;;7.78;1.48;;;19.00;99.90;;;;;;4968821;28;20065;-69
2023/10/07 11:40:30;;;;;;;4.18;1.60;;;19.20;99.90;;;;;;4970567;28;20188;-65
2023/10/07 11:42:58;;;;;;;6.93;1.65;;;19.20;99.90;;;;;;4967941;28;20224;-65
2023/10/07 11:45:26;;;;;;;4.75;1.45;;;19.20;99.90;;;;;;4969924;28;20030;-65
2023/10/07 11:47:57;;;;;;;3.97;1.65;;;19.20;99.90;;;;;;4968151;28;20115;-66
2023/10/07 11:50:31;;;;;;;6.78;1.63;;;19.30;99.90;;;;;;4975348;28;20483;-65
2023/10/07 11:53:00;;;;;;;2.83;1.38;;;19.30;99.90;;;;;;4972338;28;20031;-65
2023/10/07 11:55:27;;;;;;;10.43;1.90;;;19.60;99.90;;;;;;4973009;28;20101;-65
2023/10/07 11:57:53;;;;;;;5.68;1.70;;;19.60;99.90;;;;;;4971685;28;20078;-65
2023/10/07 12:00:34;;;;;;;5.80;1.80;;;19.30;99.90;;;;;;4974899;28;20038;-65
2023/10/07 12:03:06;;;;;;;8.05;1.45;;;19.60;99.90;;;;;;4971054;28;20038;-66
2023/10/07 12:05:32;;;;;;;5.65;2.15;;;20.20;99.90;;;;;;4974252;28;20392;-65
2023/10/07 12:08:01;;;;;;;4.25;1.52;;;19.90;99.90;;;;;;4986835;28;20106;-65
2023/10/07 12:10:36;;;;;;;4.03;1.15;;;20.40;99.90;;;;;;4989129;28;20023;-65
2023/10/07 12:13:14;;;;;;;4.10;1.30;;;21.70;99.90;;;;;;4965769;28;20110;-65
2023/10/07 12:15:42;;;;;;;8.48;2.05;;;22.70;99.90;;;;;;4974030;28;20521;-65
2023/10/07 12:18:16;;;;;;;2.22;1.00;;;21.70;99.00;;;;;;4968963;28;20467;-65
2023/10/07 12:20:42;;;;;;;5.88;1.48;;;22.40;98.00;;;;;;4974166;28;20031;-66
2023/10/07 12:23:09;;;;;;;4.68;1.88;;;21.50;98.30;;;;;;4971841;28;20391;-66
2023/10/07 12:25:37;;;;;;;5.40;1.63;;;21.20;99.90;;;;;;4968523;28;20034;-67
2023/10/07 12:28:08;;;;;;;3.95;1.35;;;21.40;99.90;;;;;;4967459;28;20406;-67
2023/10/07 12:30:34;;;;;;;;;;;21.80;99.20;;;;;;4973998;28;20027;-67
2023/10/07 12:33:02;;;;;;;3.10;1.50;;;22.00;99.30;;;;;;4969885;28;19920;-66
2023/10/07 12:35:33;;;;;;;4.25;1.10;;;22.40;98.30;;;;;;4988428;28;20039;-65
2023/10/07 12:38:00;;;;;;;12.25;1.75;;;22.50;98.10;;;;;;4965069;28;20023;-65
2023/10/07 12:40:30;;;;;;;2.72;1.02;;;22.80;96.60;;;;;;4972909;28;20026;-66
2023/10/07 12:42:57;;;;;;;5.60;1.40;;;21.80;98.70;;;;;;4965604;28;20109;-66
2023/10/07 12:45:23;;;;;;;5.55;1.80;;;22.00;98.20;;;;;;4988488;28;20478;-66
2023/10/07 12:47:51;;;;;;;5.20;1.38;;;21.80;98.60;;;;;;4984052;28;20027;-65
2023/10/07 12:50:27;;;;;;;8.43;1.35;;;21.60;99.90;;;;;;4988560;28;20034;-65
2023/10/07 12:53:04;;;;;;;5.35;1.98;;;21.50;99.90;;;;;;4983782;28;20054;-67
2023/10/07 12:55:36;;;;;;;5.85;1.50;;;21.90;98.70;;;;;;4973585;28;20030;-65
2023/10/07 12:58:08;;;;;;;20.67;2.05;;;22.00;98.60;;;;;;4965923;28;20033;-66
2023/10/07 13:00:36;;;;;;;4.53;1.70;;;21.70;99.40;;;;;;4972270;28;20053;-65
2023/10/07 13:03:05;;;;;;;6.53;1.30;;;22.50;97.30;;;;;;4969852;28;20038;-67
2023/10/07 13:05:37;;;;;;;6.63;2.50;;;22.90;95.40;;;;;;4973029;28;20026;-66
2023/10/07 13:08:17;;;;;;;4.05;1.38;;;24.30;95.10;;;;;;4970747;28;20563;-66
2023/10/07 13:10:43;;;;;;;6.15;1.92;;;24.10;93.10;;;;;;4973393;28;20065;-66
2023/10/07 13:13:13;;;;;;;2.95;1.40;;;24.10;92.40;;;;;;4972760;28;20035;-66
2023/10/07 13:15:42;;;;;;;5.30;1.83;;;25.00;90.50;;;;;;4972237;28;20178;-66
2023/10/07 13:18:10;;;;;;;7.07;1.33;;;23.60;91.90;;;;;;4972297;28;20130;-66
2023/10/07 13:20:38;;;;;;;3.55;1.17;;;23.40;93.20;;;;;;4973910;28;20053;-66
2023/10/07 13:23:10;;;;;;;18.80;2.20;;;24.40;91.90;;;;;;4973466;28;20041;-66
2023/10/07 13:25:36;;;;;;;4.00;1.30;;;25.30;90.20;;;;;;4972352;28;20023;-66
2023/10/07 13:28:03;;;;;;;4.68;1.65;;;25.40;87.20;;;;;;4970450;28;20031;-66
2023/10/07 13:30:30;;;;;;;2.20;1.13;;;24.80;90.00;;;;;;4971455;28;20387;-66
2023/10/07 13:32:56;;;;;;;2.95;1.33;;;25.50;85.50;;;;;;4970117;28;20031;-66
2023/10/07 13:35:27;;;;;;;6.40;1.85;;;24.90;88.60;;;;;;4971283;28;20468;-66
2023/10/07 13:37:56;;;;;;;8.30;1.73;;;25.00;87.40;;;;;;4970068;28;20438;-66
2023/10/07 13:40:22;;;;;;;4.10;1.70;;;24.70;85.90;;;;;;4971707;28;20055;-66
2023/10/07 13:42:53;;;;;;;3.90;1.55;;;24.60;88.80;;;;;;4968370;28;20415;-66
2023/10/07 13:45:24;;;;;;;3.22;1.23;;;25.60;84.70;;;;;;4972350;28;20121;-66
2023/10/07 13:47:54;;;;;;;3.72;1.42;;;26.20;81.20;;;;;;4963685;28;20683;-66
2023/10/07 13:50:21;;;;;;;;;;;25.50;84.30;;;;;;4971825;28;20035;-64
2023/10/07 13:52:51;;;;;;;3.00;1.23;;;26.50;77.40;;;;;;4960377;28;20335;-65
2023/10/07 13:55:44;;;;;;;11.57;1.30;;;26.20;76.10;;;;;;4957745;28;20042;-66
2023/10/07 13:58:15;;;;;;;4.45;1.42;;;26.30;77.30;;;;;;4965171;28;20186;-66
2023/10/07 14:00:45;;;;;;;3.30;1.10;;;26.20;75.60;;;;;;4962560;28;20027;-66
2023/10/07 14:03:19;;;;;;;3.80;1.30;;;26.10;74.40;;;;;;4986854;28;20066;-66
2023/10/07 14:06:01;;;;;;;2.88;1.38;;;26.20;75.80;;;;;;4972139;28;20022;-66
2023/10/07 14:08:35;;;;;;;4.38;1.50;;;26.90;72.60;;;;;;4963555;28;20471;-66
2023/10/07 14:11:01;;;;;;;2.88;1.10;;;26.90;71.10;;;;;;4964560;28;20027;-66
2023/10/07 14:13:35;;;;;;;5.15;1.63;;;26.40;71.90;;;;;;4982349;28;20410;-66